sensor_id;sensor_type;location;lat;lon;timestamp;pressure;altitude;pressure_sealevel;temperature;humidity
7052;BME280;3567;52.444;13.556;2024-03-02T00:00:22;100203.38;;;6.76;100.00
7052;BME280;3567;52.444;13.556;2024-03-02T00:02:50;100198.66;;;6.78;100.00
7052;BME280;3567;52.444;13.556;2024-03-02T00:05:20;100199.25;;;6.80;100.00
7052;BME280;3567;52.444;13.556;2024-03-02T00:07:56;100191.88;;;6.82;100.00
7052;BME280;3567;52.444;13.556;2024-03-02T00:10:25;100189.81;;;6.85;100.00
7052;BME280;3567;52.444;13.556;2024-03-02T00:12:57;100188.78;;;6.86;100.00
7052;BME280;3567;52.444;13.556;2024-03-02T00:15:48;100193.91;;;6.87;100.00
7052;BME280;3567;52.444;13.556;2024-03-02T00:18:20;100183.84;;;6.89;100.00
7052;BME280;3567;52.444;13.556;2024-03-02T00:20:46;100181.75;;;6.91;100.00
7052;BME280;3567;52.444;13.556;2024-03-02T00:23:15;100189.75;;;6.91;100.00
7052;BME280;3567;52.444;13.556;2024-03-02T00:28:14;100173.59;;;6.93;100.00
7052;BME280;3567;52.444;13.556;2024-03-02T00:31:05;100174.59;;;6.92;100.00
7052;BME280;3567;52.444;13.556;2024-03-02T00:33:41;100178.06;;;6.92;100.00
7052;BME280;3567;52.444;13.556;2024-03-02T00:36:07;100178.28;;;6.91;100.00
7052;BME280;3567;52.444;13.556;2024-03-02T00:38:34;100170.31;;;6.91;100.00
7052;BME280;3567;52.444;13.556;2024-03-02T00:41:15;100179.31;;;6.90;100.00
7052;BME280;3567;52.444;13.556;2024-03-02T00:44:16;100175.03;;;6.89;100.00
7052;BME280;3567;52.444;13.556;2024-03-02T00:46:37;100173.41;;;6.88;100.00
7052;BME280;3567;52.444;13.556;2024-03-02T00:49:04;100172.59;;;6.87;100.00
7052;BME280;3567;52.444;13.556;2024-03-02T00:51:32;100175.47;;;6.86;100.00
7052;BME280;3567;52.444;13.556;2024-03-02T00:54:03;100177.31;;;6.85;100.00
7052;BME280;3567;52.444;13.556;2024-03-02T00:56:29;100177.31;;;6.85;100.00
7052;BME280;3567;52.444;13.556;2024-03-02T00:58:55;100177.09;;;6.87;100.00
7052;BME280;3567;52.444;13.556;2024-03-02T01:01:20;100182.41;;;6.87;100.00
7052;BME280;3567;52.444;13.556;2024-03-02T01:03:46;100175.47;;;6.86;100.00
7052;BME280;3567;52.444;13.556;2024-03-02T01:06:12;100171.75;;;6.87;100.00
7052;BME280;3567;52.444;13.556;2024-03-02T01:08:38;100165.63;;;6.86;100.00
7052;BME280;3567;52.444;13.556;2024-03-02T01:11:04;100167.47;;;6.86;100.00
7052;BME280;3567;52.444;13.556;2024-03-02T01:13:30;100171.75;;;6.87;100.00
7052;BME280;3567;52.444;13.556;2024-03-02T01:15:56;100165.44;;;6.88;100.00
7052;BME280;3567;52.444;13.556;2024-03-02T01:18:22;100165.44;;;6.88;100.00
7052;BME280;3567;52.444;13.556;2024-03-02T01:20:47;100168.09;;;6.88;100.00
7052;BME280;3567;52.444;13.556;2024-03-02T01:23:13;100159.06;;;6.89;100.00
7052;BME280;3567;52.444;13.556;2024-03-02T01:25:39;100167.63;;;6.91;100.00
7052;BME280;3567;52.444;13.556;2024-03-02T01:28:05;100170.91;;;6.93;100.00
7052;BME280;3567;52.444;13.556;2024-03-02T01:30:30;100161.88;;;6.94;100.00
7052;BME280;3567;52.444;13.556;2024-03-02T01:32:56;100159.81;;;6.96;100.00
7052;BME280;3567;52.444;13.556;2024-03-02T01:35:22;100154.50;;;6.96;100.00
7052;BME280;3567;52.444;13.556;2024-03-02T01:37:47;100156.09;;;6.97;100.00
7052;BME280;3567;52.444;13.556;2024-03-02T01:40:13;100144.66;;;6.96;100.00
7052;BME280;3567;52.444;13.556;2024-03-02T01:42:39;100134.81;;;6.97;100.00
7052;BME280;3567;52.444;13.556;2024-03-02T01:45:08;100132.16;;;6.97;100.00
7052;BME280;3567;52.444;13.556;2024-03-02T01:47:34;100137.28;;;6.98;100.00
7052;BME280;3567;52.444;13.556;2024-03-02T01:50:00;100141.56;;;6.99;100.00
7052;BME280;3567;52.444;13.556;2024-03-02T01:52:27;100129.63;;;7.02;100.00
7052;BME280;3567;52.444;13.556;2024-03-02T01:54:52;100132.91;;;7.04;100.00
7052;BME280;3567;52.444;13.556;2024-03-02T01:57:17;100131.06;;;7.04;100.00
7052;BME280;3567;52.444;13.556;2024-03-02T01:59:43;100130.84;;;7.06;100.00
7052;BME280;3567;52.444;13.556;2024-03-02T02:02:08;100128.19;;;7.06;100.00
7052;BME280;3567;52.444;13.556;2024-03-02T02:04:34;100120.19;;;7.06;100.00
7052;BME280;3567;52.444;13.556;2024-03-02T02:06:59;100124.47;;;7.07;100.00
7052;BME280;3567;52.444;13.556;2024-03-02T02:09:25;100125.28;;;7.07;100.00
7052;BME280;3567;52.444;13.556;2024-03-02T02:11:51;100123.22;;;7.09;100.00
7052;BME280;3567;52.444;13.556;2024-03-02T02:14:17;100116.88;;;7.11;100.00
7052;BME280;3567;52.444;13.556;2024-03-02T02:16:42;100112.56;;;7.09;100.00
7052;BME280;3567;52.444;13.556;2024-03-02T02:19:08;100119.28;;;7.12;100.00
7052;BME280;3567;52.444;13.556;2024-03-02T02:21:33;100118.25;;;7.13;100.00
7052;BME280;3567;52.444;13.556;2024-03-02T02:23:58;100121.53;;;7.15;100.00
7052;BME280;3567;52.444;13.556;2024-03-02T02:26:24;100130.72;;;7.19;100.00
7052;BME280;3567;52.444;13.556;2024-03-02T02:28:50;100128.78;;;7.26;100.00
7052;BME280;3567;52.444;13.556;2024-03-02T02:31:16;100124.19;;;7.33;100.00
7052;BME280;3567;52.444;13.556;2024-03-02T02:33:42;100125.38;;;7.38;100.00
7052;BME280;3567;52.444;13.556;2024-03-02T02:36:07;100120.78;;;7.45;100.00
7052;BME280;3567;52.444;13.556;2024-03-02T02:38:34;100126.88;;;7.52;100.00
7052;BME280;3567;52.444;13.556;2024-03-02T02:41:02;100125.97;;;7.58;100.00
7052;BME280;3567;52.444;13.556;2024-03-02T02:43:27;100127.72;;;7.64;100.00
7052;BME280;3567;52.444;13.556;2024-03-02T02:45:52;100123.34;;;7.70;100.00
7052;BME280;3567;52.444;13.556;2024-03-02T02:48:18;100131.50;;;7.75;100.00
7052;BME280;3567;52.444;13.556;2024-03-02T02:50:43;100131.88;;;7.78;100.00
7052;BME280;3567;52.444;13.556;2024-03-02T02:53:09;100127.69;;;7.82;100.00
7052;BME280;3567;52.444;13.556;2024-03-02T02:55:35;100130.72;;;7.86;100.00
7052;BME280;3567;52.444;13.556;2024-03-02T02:58:05;100129.47;;;7.88;100.00
7052;BME280;3567;52.444;13.556;2024-03-02T03:00:31;100131.44;;;7.93;100.00
7052;BME280;3567;52.444;13.556;2024-03-02T03:02:56;100129.16;;;7.97;100.00
7052;BME280;3567;52.444;13.556;2024-03-02T03:05:22;100120.72;;;8.00;100.00
7052;BME280;3567;52.444;13.556;2024-03-02T03:07:47;100128.84;;;8.05;100.00
7052;BME280;3567;52.444;13.556;2024-03-02T03:10:15;100124.09;;;8.07;100.00
7052;BME280;3567;52.444;13.556;2024-03-02T03:12:40;100125.28;;;8.11;100.00
7052;BME280;3567;52.444;13.556;2024-03-02T03:15:08;100123.19;;;8.13;100.00
7052;BME280;3567;52.444;13.556;2024-03-02T03:17:34;100120.28;;;8.14;100.00
7052;BME280;3567;52.444;13.556;2024-03-02T03:20:00;100125.97;;;8.18;100.00
7052;BME280;3567;52.444;13.556;2024-03-02T03:22:26;100124.94;;;8.19;100.00
7052;BME280;3567;52.444;13.556;2024-03-02T03:24:52;100125.53;;;8.21;100.00
7052;BME280;3567;52.444;13.556;2024-03-02T03:27:17;100126.94;;;8.24;100.00
7052;BME280;3567;52.444;13.556;2024-03-02T03:29:43;100117.88;;;8.25;100.00
7052;BME280;3567;52.444;13.556;2024-03-02T03:32:08;100117.66;;;8.26;100.00
7052;BME280;3567;52.444;13.556;2024-03-02T03:34:34;100128.34;;;8.26;100.00
7052;BME280;3567;52.444;13.556;2024-03-02T03:37:00;100119.28;;;8.27;100.00
7052;BME280;3567;52.444;13.556;2024-03-02T03:39:25;100124.63;;;8.27;100.00
7052;BME280;3567;52.444;13.556;2024-03-02T03:41:50;100120.09;;;8.28;100.00
7052;BME280;3567;52.444;13.556;2024-03-02T03:44:16;100126.25;;;8.28;100.00
7052;BME280;3567;52.444;13.556;2024-03-02T03:46:41;100126.00;;;8.30;100.00
7052;BME280;3567;52.444;13.556;2024-03-02T03:49:07;100126.81;;;8.30;100.00
7052;BME280;3567;52.444;13.556;2024-03-02T03:51:33;100132.97;;;8.31;100.00
7052;BME280;3567;52.444;13.556;2024-03-02T03:53:58;100131.72;;;8.33;100.00
7052;BME280;3567;52.444;13.556;2024-03-02T03:56:24;100138.09;;;8.32;100.00
7052;BME280;3567;52.444;13.556;2024-03-02T03:58:49;100142.16;;;8.35;100.00
7052;BME280;3567;52.444;13.556;2024-03-02T04:01:14;100138.47;;;8.36;100.00
7052;BME280;3567;52.444;13.556;2024-03-02T04:03:40;100140.13;;;8.37;100.00
7052;BME280;3567;52.444;13.556;2024-03-02T04:06:05;100135.59;;;8.37;100.00
7052;BME280;3567;52.444;13.556;2024-03-02T04:08:30;100138.03;;;8.39;100.00
7052;BME280;3567;52.444;13.556;2024-03-02T04:10:56;100133.50;;;8.39;100.00
7052;BME280;3567;52.444;13.556;2024-03-02T04:13:21;100133.50;;;8.39;100.00
7052;BME280;3567;52.444;13.556;2024-03-02T04:15:46;100121.19;;;8.38;100.00
7052;BME280;3567;52.444;13.556;2024-03-02T04:18:12;100130.81;;;8.39;100.00
7052;BME280;3567;52.444;13.556;2024-03-02T04:20:37;100128.38;;;8.38;100.00
7052;BME280;3567;52.444;13.556;2024-03-02T04:23:03;100129.19;;;8.38;100.00
7052;BME280;3567;52.444;13.556;2024-03-02T04:25:28;100128.16;;;8.39;100.00
7052;BME280;3567;52.444;13.556;2024-03-02T04:27:53;100120.16;;;8.39;100.00
7052;BME280;3567;52.444;13.556;2024-03-02T04:30:19;100122.81;;;8.39;100.00
7052;BME280;3567;52.444;13.556;2024-03-02T04:32:44;100125.47;;;8.39;100.00
7052;BME280;3567;52.444;13.556;2024-03-02T04:35:14;100130.81;;;8.39;100.00
7052;BME280;3567;52.444;13.556;2024-03-02T04:37:39;100133.50;;;8.39;100.00
7052;BME280;3567;52.444;13.556;2024-03-02T04:40:05;100133.50;;;8.39;100.00
7052;BME280;3567;52.444;13.556;2024-03-02T04:42:34;100142.53;;;8.38;100.00
7052;BME280;3567;52.444;13.556;2024-03-02T04:44:59;100144.97;;;8.40;100.00
7052;BME280;3567;52.444;13.556;2024-03-02T04:47:24;100156.47;;;8.40;100.00
7052;BME280;3567;52.444;13.556;2024-03-02T04:49:50;100151.94;;;8.41;100.00
7052;BME280;3567;52.444;13.556;2024-03-02T04:52:16;100157.28;;;8.41;100.00
7052;BME280;3567;52.444;13.556;2024-03-02T04:54:41;100151.94;;;8.41;100.00
7052;BME280;3567;52.444;13.556;2024-03-02T04:57:25;100150.69;;;8.44;100.00
7052;BME280;3567;52.444;13.556;2024-03-02T04:59:50;100151.50;;;8.44;100.00
7052;BME280;3567;52.444;13.556;2024-03-02T05:02:15;100156.84;;;8.44;100.00
7052;BME280;3567;52.444;13.556;2024-03-02T05:04:41;100165.66;;;8.45;100.00
7052;BME280;3567;52.444;13.556;2024-03-02T05:07:07;100166.69;;;8.44;100.00
7052;BME280;3567;52.444;13.556;2024-03-02T05:09:32;100171.22;;;8.43;100.00
7052;BME280;3567;52.444;13.556;2024-03-02T05:11:58;100173.88;;;8.43;100.00
7052;BME280;3567;52.444;13.556;2024-03-02T05:14:41;100185.63;;;8.42;100.00
7052;BME280;3567;52.444;13.556;2024-03-02T05:17:07;100184.81;;;8.42;100.00
7052;BME280;3567;52.444;13.556;2024-03-02T05:19:32;100190.16;;;8.42;100.00
7052;BME280;3567;52.444;13.556;2024-03-02T05:21:58;100185.63;;;8.42;100.00
7052;BME280;3567;52.444;13.556;2024-03-02T05:24:23;100191.75;;;8.43;100.00
7052;BME280;3567;52.444;13.556;2024-03-02T05:26:48;100188.06;;;8.44;100.00
7052;BME280;3567;52.444;13.556;2024-03-02T05:29:14;100186.75;;;8.46;100.00
7052;BME280;3567;52.444;13.556;2024-03-02T05:31:40;100184.09;;;8.46;100.00
7052;BME280;3567;52.444;13.556;2024-03-02T05:34:05;100193.75;;;8.47;100.00
7052;BME280;3567;52.444;13.556;2024-03-02T05:36:31;100183.88;;;8.48;100.00
7052;BME280;3567;52.444;13.556;2024-03-02T05:38:57;100195.38;;;8.48;100.00
7052;BME280;3567;52.444;13.556;2024-03-02T05:41:22;100195.38;;;8.48;100.00
7052;BME280;3567;52.444;13.556;2024-03-02T05:43:47;100203.38;;;8.48;100.00
7052;BME280;3567;52.444;13.556;2024-03-02T05:46:13;100203.38;;;8.48;100.00
7052;BME280;3567;52.444;13.556;2024-03-02T05:48:38;100202.34;;;8.49;100.00
7052;BME280;3567;52.444;13.556;2024-03-02T05:51:04;100215.44;;;8.51;100.00
7052;BME280;3567;52.444;13.556;2024-03-02T05:53:29;100215.69;;;8.49;100.00
7052;BME280;3567;52.444;13.556;2024-03-02T05:55:54;100210.91;;;8.51;100.00
7052;BME280;3567;52.444;13.556;2024-03-02T05:58:21;100207.44;;;8.51;100.00
7052;BME280;3567;52.444;13.556;2024-03-02T06:01:13;100219.97;;;8.50;100.00
7052;BME280;3567;52.444;13.556;2024-03-02T06:03:38;100214.63;;;8.50;100.00
7052;BME280;3567;52.444;13.556;2024-03-02T06:06:04;100216.50;;;8.50;100.00
7052;BME280;3567;52.444;13.556;2024-03-02T06:08:29;100216.50;;;8.50;100.00
7052;BME280;3567;52.444;13.556;2024-03-02T06:10:54;100216.50;;;8.50;100.00
7052;BME280;3567;52.444;13.556;2024-03-02T06:13:21;100213.00;;;8.49;100.00
7052;BME280;3567;52.444;13.556;2024-03-02T06:15:46;100211.16;;;8.50;100.00
7052;BME280;3567;52.444;13.556;2024-03-02T06:18:12;100206.06;;;8.48;100.00
7052;BME280;3567;52.444;13.556;2024-03-02T06:20:37;100219.16;;;8.50;100.00
7052;BME280;3567;52.444;13.556;2024-03-02T06:23:03;100213.00;;;8.49;100.00
7052;BME280;3567;52.444;13.556;2024-03-02T06:25:29;100214.63;;;8.50;100.00
7052;BME280;3567;52.444;13.556;2024-03-02T06:27:54;100224.50;;;8.50;100.00
7052;BME280;3567;52.444;13.556;2024-03-02T06:30:19;100226.13;;;8.51;100.00
7052;BME280;3567;52.444;13.556;2024-03-02T06:32:45;100223.47;;;8.51;100.00
7052;BME280;3567;52.444;13.556;2024-03-02T06:35:10;100231.47;;;8.51;100.00
7052;BME280;3567;52.444;13.556;2024-03-02T06:37:38;100226.94;;;8.51;100.00
7052;BME280;3567;52.444;13.556;2024-03-02T06:40:06;100233.09;;;8.52;100.00
7052;BME280;3567;52.444;13.556;2024-03-02T06:42:33;100238.44;;;8.52;100.00
7052;BME280;3567;52.444;13.556;2024-03-02T06:44:59;100242.75;;;8.53;100.00
7052;BME280;3567;52.444;13.556;2024-03-02T06:47:24;100243.75;;;8.52;100.00
7052;BME280;3567;52.444;13.556;2024-03-02T06:49:50;100241.47;;;8.55;100.00
7052;BME280;3567;52.444;13.556;2024-03-02T06:52:16;100236.34;;;8.54;100.00
7052;BME280;3567;52.444;13.556;2024-03-02T06:54:41;100242.75;;;8.53;100.00
7052;BME280;3567;52.444;13.556;2024-03-02T06:57:06;100245.41;;;8.53;100.00
7052;BME280;3567;52.444;13.556;2024-03-02T06:59:31;100248.09;;;8.53;100.00
7052;BME280;3567;52.444;13.556;2024-03-02T07:01:58;100241.69;;;8.54;100.00
7052;BME280;3567;52.444;13.556;2024-03-02T07:04:24;100244.38;;;8.54;100.00
7052;BME280;3567;52.444;13.556;2024-03-02T07:06:49;100247.63;;;8.56;100.00
7052;BME280;3567;52.444;13.556;2024-03-02T07:09:14;100246.56;;;8.57;100.00
7052;BME280;3567;52.444;13.556;2024-03-02T07:11:40;100243.91;;;8.57;100.00
7052;BME280;3567;52.444;13.556;2024-03-02T07:14:05;100254.81;;;8.55;100.00
7052;BME280;3567;52.444;13.556;2024-03-02T07:16:31;100254.56;;;8.57;100.00
7052;BME280;3567;52.444;13.556;2024-03-02T07:18:58;100259.91;;;8.57;100.00
7052;BME280;3567;52.444;13.556;2024-03-02T07:21:24;100266.06;;;8.57;100.00
7052;BME280;3567;52.444;13.556;2024-03-02T07:23:49;100264.25;;;8.58;100.00
7052;BME280;3567;52.444;13.556;2024-03-02T07:26:15;100270.59;;;8.57;100.00
7052;BME280;3567;52.444;13.556;2024-03-02T07:28:42;100269.59;;;8.58;100.00
7052;BME280;3567;52.444;13.556;2024-03-02T07:31:07;100271.19;;;8.59;100.00
7052;BME280;3567;52.444;13.556;2024-03-02T07:33:33;100274.91;;;8.58;100.00
7052;BME280;3567;52.444;13.556;2024-03-02T07:35:59;100283.50;;;8.60;100.00
7052;BME280;3567;52.444;13.556;2024-03-02T07:38:26;100288.03;;;8.59;100.00
7052;BME280;3567;52.444;13.556;2024-03-02T07:40:52;100298.47;;;8.61;100.00
7052;BME280;3567;52.444;13.556;2024-03-02T07:43:18;100297.44;;;8.62;100.00
7052;BME280;3567;52.444;13.556;2024-03-02T07:45:47;100306.47;;;8.61;100.00
7052;BME280;3567;52.444;13.556;2024-03-02T07:48:13;100306.25;;;8.62;100.00
7052;BME280;3567;52.444;13.556;2024-03-02T07:50:39;100301.53;;;8.64;100.00
7052;BME280;3567;52.444;13.556;2024-03-02T07:53:04;100306.63;;;8.66;100.00
7052;BME280;3567;52.444;13.556;2024-03-02T07:55:30;100310.47;;;8.70;100.00
7052;BME280;3567;52.444;13.556;2024-03-02T07:58:00;100307.94;;;8.75;100.00
7052;BME280;3567;52.444;13.556;2024-03-02T08:00:25;100310.13;;;8.78;100.00
7052;BME280;3567;52.444;13.556;2024-03-02T08:02:51;100311.94;;;8.84;100.00
7052;BME280;3567;52.444;13.556;2024-03-02T08:05:17;100315.53;;;8.90;100.00
7052;BME280;3567;52.444;13.556;2024-03-02T08:07:44;100321.22;;;8.93;100.00
7052;BME280;3567;52.444;13.556;2024-03-02T08:10:10;100322.66;;;8.96;100.00
7052;BME280;3567;52.444;13.556;2024-03-02T08:12:35;100331.00;;;9.00;100.00
7052;BME280;3567;52.444;13.556;2024-03-02T08:15:01;100330.19;;;8.99;100.00
7052;BME280;3567;52.444;13.556;2024-03-02T08:17:26;100327.75;;;8.98;100.00
7052;BME280;3567;52.444;13.556;2024-03-02T08:19:52;100328.81;;;8.97;100.00
7052;BME280;3567;52.444;13.556;2024-03-02T08:22:18;100328.81;;;8.97;100.00
7052;BME280;3567;52.444;13.556;2024-03-02T08:24:43;100330.44;;;8.98;100.00
7052;BME280;3567;52.444;13.556;2024-03-02T08:27:09;100335.41;;;8.94;100.00
7052;BME280;3567;52.444;13.556;2024-03-02T08:29:34;100343.78;;;8.98;100.00
7052;BME280;3567;52.444;13.556;2024-03-02T08:32:00;100336.94;;;9.02;100.00
7052;BME280;3567;52.444;13.556;2024-03-02T08:34:25;100342.88;;;9.04;100.00
7052;BME280;3567;52.444;13.556;2024-03-02T08:36:51;100346.34;;;9.04;100.00
7052;BME280;3567;52.444;13.556;2024-03-02T08:39:16;100340.81;;;9.06;100.00
7052;BME280;3567;52.444;13.556;2024-03-02T08:41:44;100349.41;;;9.08;100.00
7052;BME280;3567;52.444;13.556;2024-03-02T08:44:09;100347.28;;;9.10;100.00
7052;BME280;3567;52.444;13.556;2024-03-02T08:46:35;100338.84;;;9.13;100.00
7052;BME280;3567;52.444;13.556;2024-03-02T08:49:01;100342.09;;;9.15;100.00
7052;BME280;3567;52.444;13.556;2024-03-02T08:51:26;100343.69;;;9.16;100.00
7052;BME280;3567;52.444;13.556;2024-03-02T08:53:51;100347.78;;;9.18;100.00
7052;BME280;3567;52.444;13.556;2024-03-02T08:56:17;100349.19;;;9.21;100.00
7052;BME280;3567;52.444;13.556;2024-03-02T08:58:43;100351.16;;;9.26;100.00
7052;BME280;3567;52.444;13.556;2024-03-02T09:01:09;100351.97;;;9.26;100.00
7052;BME280;3567;52.444;13.556;2024-03-02T09:03:35;100357.31;;;9.26;100.00
7052;BME280;3567;52.444;13.556;2024-03-02T09:06:01;100356.88;;;9.29;100.00
7052;BME280;3567;52.444;13.556;2024-03-02T09:08:26;100363.41;;;9.33;100.00
7052;BME280;3567;52.444;13.556;2024-03-02T09:10:52;100361.06;;;9.37;100.00
7052;BME280;3567;52.444;13.556;2024-03-02T09:13:18;100360.84;;;9.38;100.00
7052;BME280;3567;52.444;13.556;2024-03-02T09:15:43;100366.22;;;9.38;100.00
7052;BME280;3567;52.444;13.556;2024-03-02T09:18:09;100356.09;;;9.40;100.00
7052;BME280;3567;52.444;13.556;2024-03-02T09:20:35;100368.41;;;9.41;100.00
7052;BME280;3567;52.444;13.556;2024-03-02T09:23:00;100361.19;;;9.42;100.00
7052;BME280;3567;52.444;13.556;2024-03-02T09:25:26;100358.66;;;9.47;100.00
7052;BME280;3567;52.444;13.556;2024-03-02T09:27:51;100363.06;;;9.53;100.00
7052;BME280;3567;52.444;13.556;2024-03-02T09:30:16;100358.44;;;9.60;100.00
7052;BME280;3567;52.444;13.556;2024-03-02T09:32:42;100353.34;;;9.70;100.00
7052;BME280;3567;52.444;13.556;2024-03-02T09:35:08;100361.13;;;9.84;100.00
7052;BME280;3567;52.444;13.556;2024-03-02T09:37:34;100364.84;;;9.94;100.00
7052;BME280;3567;52.444;13.556;2024-03-02T09:40:00;100366.13;;;10.04;100.00
7052;BME280;3567;52.444;13.556;2024-03-02T09:42:25;100363.19;;;10.17;100.00
7052;BME280;3567;52.444;13.556;2024-03-02T09:44:52;100366.13;;;10.27;100.00
7052;BME280;3567;52.444;13.556;2024-03-02T09:47:17;100366.94;;;10.39;100.00
7052;BME280;3567;52.444;13.556;2024-03-02T09:49:42;100366.19;;;10.56;100.00
7052;BME280;3567;52.444;13.556;2024-03-02T09:52:10;100368.94;;;10.72;100.00
7052;BME280;3567;52.444;13.556;2024-03-02T09:54:36;100366.16;;;10.96;100.00
7052;BME280;3567;52.444;13.556;2024-03-02T09:57:04;100365.25;;;11.19;100.00
7052;BME280;3567;52.444;13.556;2024-03-02T09:59:29;100371.44;;;11.36;100.00
7052;BME280;3567;52.444;13.556;2024-03-02T10:01:59;100380.38;;;11.42;100.00
7052;BME280;3567;52.444;13.556;2024-03-02T10:04:29;100380.03;;;11.55;100.00
7052;BME280;3567;52.444;13.556;2024-03-02T10:07:18;100385.19;;;11.57;100.00
7052;BME280;3567;52.444;13.556;2024-03-02T10:09:48;100389.31;;;11.64;100.00
7052;BME280;3567;52.444;13.556;2024-03-02T10:12:15;100382.16;;;11.70;100.00
7052;BME280;3567;52.444;13.556;2024-03-02T10:14:41;100377.13;;;11.73;100.00
7052;BME280;3567;52.444;13.556;2024-03-02T10:17:08;100380.88;;;11.72;100.00
7052;BME280;3567;52.444;13.556;2024-03-02T10:19:35;100372.91;;;11.77;100.00
7052;BME280;3567;52.444;13.556;2024-03-02T10:22:03;100369.50;;;11.82;100.00
7052;BME280;3567;52.444;13.556;2024-03-02T10:24:38;100372.66;;;11.79;100.00
7052;BME280;3567;52.444;13.556;2024-03-02T10:27:15;100378.28;;;11.77;100.00
7052;BME280;3567;52.444;13.556;2024-03-02T10:29:41;100370.16;;;11.72;100.00
7052;BME280;3567;52.444;13.556;2024-03-02T10:32:10;100367.69;;;11.71;100.00
7052;BME280;3567;52.444;13.556;2024-03-02T10:34:43;100365.44;;;11.63;100.00
7052;BME280;3567;52.444;13.556;2024-03-02T10:37:11;100368.38;;;11.61;100.00
7052;BME280;3567;52.444;13.556;2024-03-02T10:39:37;100370.78;;;11.63;100.00
7052;BME280;3567;52.444;13.556;2024-03-02T10:42:05;100372.31;;;11.59;100.00
7052;BME280;3567;52.444;13.556;2024-03-02T10:44:31;100369.66;;;11.59;100.00
7052;BME280;3567;52.444;13.556;2024-03-02T10:47:00;100370.78;;;11.63;100.00
7052;BME280;3567;52.444;13.556;2024-03-02T10:49:26;100367.84;;;11.64;100.00
7052;BME280;3567;52.444;13.556;2024-03-02T10:51:52;100360.69;;;11.70;100.00
7052;BME280;3567;52.444;13.556;2024-03-02T10:54:18;100370.44;;;11.76;100.00
7052;BME280;3567;52.444;13.556;2024-03-02T10:56:44;100368.00;;;11.74;100.00
7052;BME280;3567;52.444;13.556;2024-03-02T11:01:38;100356.13;;;11.70;98.71
7052;BME280;3567;52.444;13.556;2024-03-02T11:04:06;100357.09;;;11.81;99.73
7052;BME280;3567;52.444;13.556;2024-03-02T11:06:34;100361.44;;;11.82;98.47
7052;BME280;3567;52.444;13.556;2024-03-02T11:09:06;100353.38;;;11.82;97.73
7052;BME280;3567;52.444;13.556;2024-03-02T11:11:36;100353.53;;;11.92;98.11
7052;BME280;3567;52.444;13.556;2024-03-02T11:14:04;100356.88;;;11.99;97.15
7052;BME280;3567;52.444;13.556;2024-03-02T11:16:38;100347.75;;;12.00;98.47
7052;BME280;3567;52.444;13.556;2024-03-02T11:19:12;100349.81;;;11.93;96.77
7052;BME280;3567;52.444;13.556;2024-03-02T11:21:38;100349.31;;;11.96;98.03
7052;BME280;3567;52.444;13.556;2024-03-02T11:24:29;100351.88;;;12.08;97.87
7052;BME280;3567;52.444;13.556;2024-03-02T11:27:04;100354.03;;;12.28;97.16
7052;BME280;3567;52.444;13.556;2024-03-02T11:32:14;100353.38;;;12.87;95.40
7052;BME280;3567;52.444;13.556;2024-03-02T11:34:45;100357.63;;;13.36;94.06
7052;BME280;3567;52.444;13.556;2024-03-02T11:37:15;100351.41;;;13.63;91.63
7052;BME280;3567;52.444;13.556;2024-03-02T11:39:43;100350.09;;;13.66;90.24
7052;BME280;3567;52.444;13.556;2024-03-02T11:42:09;100354.09;;;13.63;89.68
7052;BME280;3567;52.444;13.556;2024-03-02T11:44:37;100354.97;;;13.74;89.94
7052;BME280;3567;52.444;13.556;2024-03-02T11:47:07;100357.75;;;13.84;89.27
7052;BME280;3567;52.444;13.556;2024-03-02T11:49:40;100367.69;;;13.83;87.53
7052;BME280;3567;52.444;13.556;2024-03-02T11:52:07;100367.44;;;13.80;87.10
7052;BME280;3567;52.444;13.556;2024-03-02T11:54:33;100364.72;;;13.80;86.64
7052;BME280;3567;52.444;13.556;2024-03-02T11:57:02;100363.34;;;14.20;87.30
7052;BME280;3567;52.444;13.556;2024-03-02T11:59:31;100347.72;;;14.89;85.33
7052;BME280;3567;52.444;13.556;2024-03-02T12:01:57;100349.13;;;15.48;83.90
7052;BME280;3567;52.444;13.556;2024-03-02T12:04:23;100348.88;;;15.85;81.10
7052;BME280;3567;52.444;13.556;2024-03-02T12:06:55;100344.75;;;16.03;78.04
7052;BME280;3567;52.444;13.556;2024-03-02T12:09:21;100339.66;;;15.96;77.07
7052;BME280;3567;52.444;13.556;2024-03-02T12:11:47;100339.34;;;16.08;76.63
7052;BME280;3567;52.444;13.556;2024-03-02T12:14:12;100329.88;;;16.21;75.04
7052;BME280;3567;52.444;13.556;2024-03-02T12:16:38;100340.13;;;16.19;75.04
7052;BME280;3567;52.444;13.556;2024-03-02T12:19:05;100331.19;;;16.23;74.11
7052;BME280;3567;52.444;13.556;2024-03-02T12:21:31;100326.88;;;16.22;72.52
7052;BME280;3567;52.444;13.556;2024-03-02T12:23:57;100329.84;;;16.26;72.75
7052;BME280;3567;52.444;13.556;2024-03-02T12:26:22;100321.50;;;16.12;71.64
7052;BME280;3567;52.444;13.556;2024-03-02T12:28:48;100313.72;;;15.95;71.21
7052;BME280;3567;52.444;13.556;2024-03-02T12:31:13;100327.75;;;16.03;72.43
7052;BME280;3567;52.444;13.556;2024-03-02T12:33:40;100326.38;;;16.15;71.55
7052;BME280;3567;52.444;13.556;2024-03-02T12:36:09;100320.38;;;16.29;71.20
7052;BME280;3567;52.444;13.556;2024-03-02T12:38:37;100323.63;;;16.31;70.46
7052;BME280;3567;52.444;13.556;2024-03-02T12:41:03;100316.88;;;16.28;69.33
7052;BME280;3567;52.444;13.556;2024-03-02T12:43:31;100320.34;;;16.39;70.01
7052;BME280;3567;52.444;13.556;2024-03-02T12:45:57;100320.22;;;16.64;70.10
7052;BME280;3567;52.444;13.556;2024-03-02T12:48:23;100316.84;;;16.88;69.95
7052;BME280;3567;52.444;13.556;2024-03-02T12:50:49;100313.34;;;16.87;69.03
7052;BME280;3567;52.444;13.556;2024-03-02T12:53:15;100317.84;;;17.02;70.05
7052;BME280;3567;52.444;13.556;2024-03-02T12:55:41;100315.50;;;17.24;69.48
7052;BME280;3567;52.444;13.556;2024-03-02T12:58:07;100310.06;;;17.29;69.13
7052;BME280;3567;52.444;13.556;2024-03-02T13:00:32;100302.34;;;17.13;68.23
7052;BME280;3567;52.444;13.556;2024-03-02T13:03:00;100306.69;;;17.09;68.43
7052;BME280;3567;52.444;13.556;2024-03-02T13:05:32;100304.69;;;16.90;67.81